KDGW/DGW METAR and TAF weather

Enter ICAO airport designator
Station Type Date Time Source
KDGW METAR 2019/07/17 12:53 UTC NOAA

KDGW 171253Z AUTO 30008KT 10SM SCT026 16/13 A3003 RMK AO2 SLP105 T01560133


Station Type Date Time Source
KDGW Decoded METAR 2019/07/17 12:53 UTC NOAA

DOUGLAS CONVERSE COUNTY, WY, United States (KDGW) 42-48N 105-23W 1499M
Jul 17, 2019 - 08:53 AM EDT / 2019.07.17 1253 UTC
Wind: from the WNW (300 degrees) at 9 MPH (8 KT):0
Visibility: 10 mile(s):0
Sky conditions: partly cloudy
Temperature: 60.1 F (15.6 C)
Dew Point: 55.9 F (13.3 C)
Relative Humidity: 86%
Pressure (altimeter): 30.03 in. Hg (1016 hPa)
ob: KDGW 171253Z AUTO 30008KT 10SM SCT026 16/13 A3003 RMK AO2 SLP105 T01560133
cycle: 13

Station Type Date Time Source
KDGW TAF UTC NOAA

Error!

Example: see airport list